Flight Track Log - Related Links

Times and Time Zones

All times are in EDT time to prevent confusion due to time zone crossing. See the DAL268 flight status page for this flight to view local times or setup timezone preferences in your user account.

Time Position Orientation Groundspeed Altitude Reporting Facility
EDT Latitude Longitude Course Direction KTS MPH feet Rate Location/Type
Fri 03:57:24 PM 37.6180 -122.3740 38° Northeast 150 173  Level FlightAware ADS-B
Fri 03:57:48 PM 37.6356 -122.3620 28° Northeast 172 198 700 1,929 Climbing FlightAware ADS-B
Fri 03:57:52 PM 37.6384 -122.3600 29° Northeast 176 203 900 2,667 Climbing FlightAware ADS-B
Fri 03:57:57 PM 37.6416 -122.3560 45° Northeast 184 212 1,100 2,250 Climbing FlightAware ADS-B
Fri 03:58:00 PM 37.6434 -122.3540 41° Northeast 187 215 1,200 2,000 Climbing FlightAware ADS-B
Fri 03:58:15 PM 37.6523 -122.3410 49° Northeast 198 228 1,700 1,875 Climbing FlightAware ADS-B
Fri 03:58:32 PM 37.6630 -122.3260 48° Northeast 210 242 2,200 1,875 Climbing FlightAware ADS-B
Fri 03:58:47 PM 37.6740 -122.3120 45° Northeast 231 266 2,700 2,129 Climbing FlightAware ADS-B
Fri 03:59:03 PM 37.6865 -122.2960 45° Northeast 241 277 3,300 2,615 Climbing FlightAware ADS-B
Fri 03:59:26 PM 37.7049 -122.2730 45° Northeast 245 282 4,400 2,769 Climbing FlightAware ADS-B
Fri 03:59:42 PM 37.7182 -122.2570 44° Northeast 248 285 5,100 2,087 Climbing FlightAware ADS-B
Fri 04:00:12 PM 37.7463 -122.2280 39° Northeast 275 316 6,000 1,909 Climbing FlightAware ADS-B
Fri 04:00:26 PM 37.7606 -122.2150 36° Northeast 288 331 6,500 2,438 Climbing FlightAware ADS-B
Fri 04:00:44 PM 37.7790 -122.1950 41° Northeast 288 331 7,300 2,919 Climbing FlightAware ADS-B
Fri 04:01:03 PM 37.7993 -122.1750 38° Northeast 289 333 8,300 2,833 Climbing FlightAware ADS-B
Fri 04:01:20 PM 37.8171 -122.1580 37° Northeast 296 341 9,000 2,438 Climbing FlightAware ADS-B
Fri 04:01:35 PM 37.8340 -122.1410 38° Northeast 301 346 9,600 1,957 Climbing FlightAware ADS-B
Fri 04:02:06 PM 37.8692 -122.1080 37° Northeast 320 368 10,500 1,452 Climbing FlightAware ADS-B
Fri 04:02:37 PM 37.9080 -122.0710 37° Northeast 356 410 11,100 1,219 Climbing FlightAware ADS-B
Fri 04:03:10 PM 37.9539 -122.0270 37° Northeast 385 443 11,800 1,612 Climbing FlightAware ADS-B
Fri 04:03:44 PM 38.0033 -121.9790 37° Northeast 395 455 12,900 2,026 Climbing FlightAware ADS-B
Fri 04:04:27 PM 38.0660 -121.9180 37° Northeast 408 470 14,400 2,074 Climbing FlightAware ADS-B
Fri 04:05:05 PM 38.1240 -121.8620 37° Northeast 417 480 15,700 2,057 Climbing FlightAware ADS-B
Fri 04:05:37 PM 38.1750 -121.8130 37° Northeast 424 488 16,800 1,941 Climbing FlightAware ADS-B
Fri 04:06:13 PM 38.2300 -121.7600 37° Northeast 431 496 17,900 1,765 Climbing FlightAware ADS-B
Fri 04:06:45 PM 38.2820 -121.7090 38° Northeast 438 504 18,800 1,500 Climbing FlightAware ADS-B
Fri 04:07:25 PM 38.3470 -121.6460 37° Northeast 455 524 19,700 1,500 Climbing FlightAware ADS-B
Fri 04:08:01 PM 38.4080 -121.5870 37° Northeast 462 532 20,700 1,500 Climbing FlightAware ADS-B
Fri 04:08:33 PM 38.4570 -121.5260 44° Northeast 468 539 21,400 1,455 Climbing FlightAware ADS-B
Fri 04:09:07 PM 38.5030 -121.4520 52° Northeast 474 545 22,300 1,583 Climbing FlightAware ADS-B
Fri 04:09:45 PM 38.5540 -121.3640 53° Northeast 480 552 23,300 1,412 Climbing FlightAware ADS-B
Fri 04:10:15 PM 38.5920 -121.2970 54° Northeast 485 558 23,900 1,371 Climbing FlightAware ADS-B
Fri 04:10:55 PM 38.6460 -121.2040 53° Northeast 492 566 24,900 1,350 Climbing FlightAware ADS-B
Fri 04:11:35 PM 38.6900 -121.1290 53° Northeast 496 571 25,700 1,421 Climbing FlightAware ADS-B
Fri 04:12:11 PM 38.7500 -121.0250 53° Northeast 502 578 26,700 1,500 Climbing FlightAware ADS-B
Fri 04:12:43 PM 38.7950 -120.9470 53° Northeast 507 583 27,400 1,200 Climbing FlightAware ADS-B
Fri 04:13:21 PM 38.8470 -120.8550 54° Northeast 513 590 28,100 1,114 Climbing FlightAware ADS-B
Fri 04:13:53 PM 38.8930 -120.7760 53° Northeast 517 595 28,700 1,500 Climbing FlightAware ADS-B
Fri 04:14:29 PM 38.9430 -120.6900 53° Northeast 513 590 29,800 1,726 Climbing FlightAware ADS-B
Fri 04:15:06 PM 38.9940 -120.6030 53° Northeast 507 583 30,800 1,676 Climbing FlightAware ADS-B
Fri 04:15:37 PM 39.0360 -120.5300 53° Northeast 502 578 31,700 1,652 Climbing FlightAware ADS-B
Fri 04:16:15 PM 39.0890 -120.4370 54° Northeast 497 572 32,700 1,479 Climbing FlightAware ADS-B
Fri 04:16:50 PM 39.1380 -120.3510 54° Northeast 495 570 33,500 1,250 Climbing FlightAware ADS-B
Fri 04:17:27 PM 39.1870 -120.2660 53° Northeast 496 571 34,200 1,130 Climbing FlightAware ADS-B
Fri 04:17:59 PM 39.2320 -120.1860 54° Northeast 495 570 34,800 706 Climbing FlightAware ADS-B
Fri 04:18:35 PM 39.2820 -120.0990 53° Northeast 498 573 35,000 188 Climbing FlightAware ADS-B
Fri 04:19:03 PM 39.3190 -120.0330 54° Northeast 498 573 35,000  Level FlightAware ADS-B
Fri 04:19:41 PM 39.3710 -119.9420 54° Northeast 501 577 35,000 600 Level FlightAware ADS-B
Fri 04:20:13 PM 39.4140 -119.8640 54° Northeast 496 571 35,700 1,235 Climbing FlightAware ADS-B
Fri 04:20:49 PM 39.4630 -119.7790 53° Northeast 494 568 36,400 1,000 Climbing FlightAware ADS-B
Fri 04:21:25 PM 39.5100 -119.6930 55° Northeast 495 570 36,900 493 Climbing FlightAware ADS-B
Fri 04:22:02 PM 39.5600 -119.6050 54° Northeast 499 574 37,000 83 Climbing FlightAware ADS-B
Fri 04:22:37 PM 39.6080 -119.5180 54° Northeast 504 580 37,000  Level FlightAware ADS-B
Fri 04:23:09 PM 39.6520 -119.4390 54° Northeast 506 582 37,000  Level FlightAware ADS-B
Fri 04:23:46 PM 39.7020 -119.3500 54° Northeast 503 579 37,000  Level FlightAware ADS-B
Fri 04:24:22 PM 39.7510 -119.2600 55° Northeast 504 580 37,000  Level FlightAware ADS-B
Fri 04:24:54 PM 39.7960 -119.1810 53° Northeast 505 581 37,000  Level FlightAware ADS-B
Fri 04:25:30 PM 39.8430 -119.0950 55° Northeast 504 580 37,000  Level FlightAware ADS-B
Fri 04:26:06 PM 39.8920 -119.0050 55° Northeast 504 580 37,000  Level FlightAware ADS-B
Fri 04:26:40 PM 39.9390 -118.9200 54° Northeast 505 581 37,000  Level FlightAware ADS-B
Fri 04:27:13 PM 39.9820 -118.8400 55° Northeast 504 580 37,000  Level FlightAware ADS-B
Fri 04:27:52 PM 40.0370 -118.7400 54° Northeast 503 579 37,000  Level FlightAware ADS-B
Fri 04:28:24 PM 40.0790 -118.6620 55° Northeast 503 579 37,000  Level FlightAware ADS-B
Fri 04:29:00 PM 40.1230 -118.5700 58° Northeast 501 577 37,000  Level FlightAware ADS-B
Fri 04:29:36 PM 40.1550 -118.4720 67° East 499 574 37,000  Level FlightAware ADS-B
Fri 04:30:08 PM 40.1810 -118.3800 70° East 498 573 37,000  Level FlightAware ADS-B
Fri 04:30:44 PM 40.2090 -118.2760 71° East 499 574 37,000  Level FlightAware ADS-B
Fri 04:31:18 PM 40.2330 -118.1870 71° East 499 574 37,000  Level FlightAware ADS-B
Fri 04:32:05 PM 40.2670 -118.0600 71° East 499 574 37,000  Level FlightAware ADS-B
Fri 04:32:42 PM 40.2920 -117.9710 70° East 499 574 37,000  Level FlightAware ADS-B
Fri 04:33:18 PM 40.3160 -117.8840 70° East 499 574 37,000  Level FlightAware ADS-B
Fri 04:34:14 PM 40.3660 -117.6960 71° East 499 574 37,000  Level FlightAware ADS-B
Fri 04:34:50 PM 40.3900 -117.6090 70° East 499 574 37,000  Level FlightAware ADS-B
Fri 04:35:25 PM 40.4140 -117.5240 70° East 499 574 37,000  Level FlightAware ADS-B
Fri 04:36:01 PM 40.4380 -117.4370 70° East 499 574 37,000  Level FlightAware ADS-B
Fri 04:36:37 PM 40.4620 -117.3490 70° East 499 574 37,000  Level FlightAware ADS-B
Fri 04:37:14 PM 40.4870 -117.2600 70° East 499 574 37,000  Level FlightAware ADS-B
Fri 04:37:49 PM 40.5100 -117.1750 70° East 499 574 37,000  Level FlightAware ADS-B
Fri 04:38:26 PM 40.5350 -117.0850 70° East 499 574 37,000  Level FlightAware ADS-B
Fri 04:39:03 PM 40.5600 -116.9950 70° East 499 574 37,000  Level FlightAware ADS-B
Fri 04:39:39 PM 40.5840 -116.9080 70° East 499 574 37,000  Level FlightAware ADS-B
Fri 04:40:15 PM 40.6080 -116.8200 70° East 499 574 37,000  Level FlightAware ADS-B
Fri 04:40:51 PM 40.6320 -116.7330 70° East 499 574 37,000  Level FlightAware ADS-B
Fri 04:41:27 PM 40.6560 -116.6450 70° East 499 574 37,000  Level FlightAware ADS-B
Fri 04:42:04 PM 40.6810 -116.5550 70° East 499 574 37,000  Level FlightAware ADS-B
Fri 04:42:40 PM 40.7050 -116.4680 70° East 499 574 37,000  Level FlightAware ADS-B
Fri 04:43:00 PM 40.7710 -116.1750 73° East 500 575 37,000  Level FlightAware ADS-B
Fri 04:43:33 PM 40.7966 -116.0780 71° East 501 577 37,000  Level FlightAware ADS-B
Fri 04:44:07 PM 40.8224 -115.9810 71° East 501 577 37,000  Level FlightAware ADS-B
Fri 04:44:50 PM 40.8549 -115.8570 71° East 501 577 37,000  Level FlightAware ADS-B
Fri 04:48:07 PM 41.0022 -115.2900 71° East 498 573 37,000  Level FlightAware ADS-B
Fri 04:48:37 PM 41.0246 -115.2020 71° East 498 573 37,000  Level FlightAware ADS-B
Fri 04:49:07 PM 41.0467 -115.1160 71° East 498 573 37,000  Level FlightAware ADS-B
Fri 04:50:11 PM 41.0930 -114.9330 71° East 498 573 37,000  Level FlightAware ADS-B
Fri 04:50:41 PM 41.1150 -114.8460 71° East 497 572 37,000  Level FlightAware ADS-B
Fri 04:51:23 PM 41.1455 -114.7250 71° East 496 571 37,000  Level FlightAware ADS-B
Fri 04:51:53 PM 41.1674 -114.6380 71° East 497 572 37,000  Level FlightAware ADS-B
Fri 04:52:24 PM 41.1892 -114.5500 72° East 496 571 37,000  Level FlightAware ADS-B
Fri 04:52:57 PM 41.2134 -114.4520 72° East 496 571 37,000  Level FlightAware ADS-B
Fri 04:53:28 PM 41.2350 -114.3650 72° East 496 571 37,000  Level FlightAware ADS-B
Fri 04:54:32 PM 41.2804 -114.1800 72° East 495 570 37,000  Level FlightAware ADS-B
Fri 04:55:15 PM 41.3111 -114.0550 72° East 493 567 37,000  Level FlightAware ADS-B
Fri 04:55:46 PM 41.3324 -113.9670 72° East 493 567 37,000  Level FlightAware ADS-B
Fri 04:56:09 PM 41.3483 -113.9010 72° East 493 567 37,000  Level FlightAware ADS-B
Fri 04:56:20 PM 41.3551 -113.8670 75° East 493 567 37,000  Level FlightAware ADS-B
Fri 04:56:38 PM 41.3631 -113.8150 78° East 494 568 37,000  Level FlightAware ADS-B
Fri 04:57:08 PM 41.3713 -113.7250 83° East 494 568 37,000  Level FlightAware ADS-B
Fri 04:57:38 PM 41.3774 -113.6340 85° East 493 567 37,000  Level FlightAware ADS-B
Fri 04:58:08 PM 41.3832 -113.5440 85° East 493 567 37,000  Level FlightAware ADS-B
Fri 04:58:38 PM 41.3888 -113.4530 85° East 492 566 37,000  Level FlightAware ADS-B
Fri 04:59:13 PM 41.3954 -113.3500 85° East 491 565 37,000  Level FlightAware ADS-B
Fri 04:59:43 PM 41.4011 -113.2590 85° East 491 565 37,000  Level FlightAware ADS-B
Fri 05:00:13 PM 41.4068 -113.1680 85° East 491 565 37,000  Level FlightAware ADS-B
Fri 05:00:46 PM 41.4130 -113.0690 85° East 491 565 37,000  Level FlightAware ADS-B
Fri 05:01:16 PM 41.4186 -112.9780 85° East 491 565 37,000  Level FlightAware ADS-B
Fri 05:01:53 PM 41.4250 -112.8690 85° East 491 565 37,000  Level FlightAware ADS-B
Fri 05:02:07 PM 41.4277 -112.8260 85° East 492 566 37,000  Level FlightAware ADS-B
Fri 05:02:56 PM 41.4364 -112.6780 85° East 491 565 37,000  Level FlightAware ADS-B
Fri 05:03:28 PM 41.4420 -112.5800 86° East 491 565 37,000  Level FlightAware ADS-B
Fri 05:03:58 PM 41.4472 -112.4900 86° East 492 566 37,000  Level FlightAware ADS-B
Fri 05:04:32 PM 41.4528 -112.3900 86° East 492 566 37,000  Level FlightAware ADS-B
Fri 05:05:02 PM 41.4578 -112.2980 86° East 492 566 37,000  Level FlightAware ADS-B
Fri 05:05:47 PM 41.4652 -112.1620 86° East 493 567 37,000  Level FlightAware ADS-B
Fri 05:06:18 PM 41.4701 -112.0690 86° East 493 567 37,000  Level FlightAware ADS-B
Fri 05:06:48 PM 41.4749 -111.9760 86° East 493 567 37,000  Level FlightAware ADS-B
Fri 05:07:19 PM 41.4796 -111.8850 86° East 493 567 37,000  Level FlightAware ADS-B
Fri 05:07:52 PM 41.4847 -111.7830 86° East 494 568 37,000  Level FlightAware ADS-B
Fri 05:08:23 PM 41.4894 -111.6910 86° East 494 568 37,000  Level FlightAware ADS-B
Fri 05:08:54 PM 41.4940 -111.5970 86° East 494 568 37,000  Level FlightAware ADS-B
Fri 05:09:24 PM 41.4985 -111.5040 86° East 494 568 37,000  Level FlightAware ADS-B
Fri 05:09:56 PM 41.5031 -111.4070 86° East 494 568 37,000  Level FlightAware ADS-B
Fri 05:10:27 PM 41.5073 -111.3160 86° East 493 567 37,000  Level FlightAware ADS-B
Fri 05:10:58 PM 41.5117 -111.2200 86° East 493 567 37,000  Level FlightAware ADS-B
Fri 05:11:29 PM 41.5159 -111.1280 86° East 493 567 37,000  Level FlightAware ADS-B
Fri 05:12:01 PM 41.5201 -111.0310 87° East 493 567 37,000  Level FlightAware ADS-B
Fri 05:12:36 PM 41.5247 -110.9250 87° East 493 567 37,000  Level FlightAware ADS-B
Fri 05:13:06 PM 41.5286 -110.8320 87° East 493 567 37,000  Level FlightAware ADS-B
Fri 05:14:11 PM 41.5360 -110.6400 87° East 493 567 37,000  Level FlightAware ADS-B
Fri 05:14:43 PM 41.5400 -110.5420 87° East 493 567 37,000  Level FlightAware ADS-B
Fri 05:15:21 PM 41.5450 -110.4260 87° East 493 567 37,000  Level FlightAware ADS-B
Fri 05:15:53 PM 41.5480 -110.3300 88° East 494 568 37,000  Level FlightAware ADS-B
Fri 05:16:38 PM 41.5530 -110.2060 87° East 494 568 37,000  Level FlightAware ADS-B
Fri 05:17:14 PM 41.5570 -110.1130 87° East 494 568 37,000  Level FlightAware ADS-B
Fri 05:17:51 PM 41.5610 -110.0170 87° East 494 568 37,000  Level FlightAware ADS-B
Fri 05:18:27 PM 41.5640 -109.9240 88° East 494 568 37,000  Level FlightAware ADS-B
Fri 05:19:03 PM 41.5680 -109.8300 87° East 494 568 37,000  Level FlightAware ADS-B
Fri 05:19:39 PM 41.5720 -109.7370 87° East 494 568 37,000  Level FlightAware ADS-B
Fri 05:20:15 PM 41.5750 -109.6440 88° East 494 568 37,000  Level FlightAware ADS-B
Fri 05:20:49 PM 41.5790 -109.5550 87° East 494 568 37,000  Level FlightAware ADS-B
Fri 05:21:25 PM 41.5820 -109.4620 87° East 494 568 37,000  Level FlightAware ADS-B
Fri 05:22:01 PM 41.5860 -109.3690 87° East 494 568 37,000  Level FlightAware ADS-B
Fri 05:22:37 PM 41.5900 -109.2750 87° East 494 568 37,000  Level FlightAware ADS-B
Fri 05:23:14 PM 41.5930 -109.1790 88° East 494 568 37,000  Level FlightAware ADS-B
Fri 05:23:51 PM 41.5970 -109.0830 87° East 494 568 37,000  Level FlightAware ADS-B
Fri 05:24:27 PM 41.6010 -108.9900 87° East 494 568 37,000  Level FlightAware ADS-B
Fri 05:25:03 PM 41.6040 -108.8970 87° East 494 568 37,000  Level FlightAware ADS-B
Fri 05:25:39 PM 41.6080 -108.8030 87° East 494 568 37,000  Level FlightAware ADS-B
Fri 05:26:37 PM 41.6639 -108.4139 87° East 487 560 37,000  Level Salt Lake Center
Fri 05:27:39 PM 41.6864 -108.2139 81° East 486 559 37,000  Level Salt Lake Center
Fri 05:28:41 PM 41.7056 -108.0406 82° East 490 564 37,000  Level Salt Lake Center
Fri 05:29:43 PM 41.7278 -107.8422 81° East 485 558 37,000  Level Salt Lake Center
Fri 05:30:45 PM 41.7472 -107.6708 81° East 486 559 37,000  Level Salt Lake Center
Fri 05:31:47 PM 41.7636 -107.4703 84° East 485 558 37,000  Level Salt Lake Center
Fri 05:37:08 PM 41.8190 -106.5070 84° East 481 554 37,000  Level FlightAware ADS-B
Fri 05:37:43 PM 41.8250 -106.4030 86° East 479 551 37,000  Level FlightAware ADS-B
Fri 05:38:14 PM 41.8300 -106.3100 86° East 476 548 37,000  Level FlightAware ADS-B
Fri 05:38:52 PM 41.8360 -106.1970 86° East 474 545 37,000  Level FlightAware ADS-B
Fri 05:39:28 PM 41.8410 -106.0920 86° East 473 544 37,000  Level FlightAware ADS-B
Fri 05:40:04 PM 41.8480 -105.9870 85° East 471 542 37,000  Level FlightAware ADS-B
Fri 05:40:45 PM 41.8610 -105.8730 81° East 470 541 37,000  Level FlightAware ADS-B
Fri 05:41:21 PM 41.8730 -105.7690 81° East 469 540 37,000  Level FlightAware ADS-B
Fri 05:41:59 PM 41.8860 -105.6590 81° East 469 540 37,000  Level FlightAware ADS-B
Fri 05:42:55 PM 41.9030 -105.5110 81° East 469 540 37,000  Level FlightAware ADS-B
Fri 05:43:31 PM 41.9130 -105.4230 81° East 469 540 37,000  Level FlightAware ADS-B
Fri 05:44:09 PM 41.9280 -105.2840 82° East 468 539 37,000  Level FlightAware ADS-B
Fri 05:44:43 PM 41.9390 -105.1870 81° East 468 539 37,000  Level FlightAware ADS-B
Fri 05:45:10 PM 41.9478 -105.1090 81° East 468 539 37,000  Level FlightAware ADS-B
Fri 05:45:40 PM 41.9574 -105.0220 82° East 468 539 37,000  Level FlightAware ADS-B
Fri 05:46:11 PM 41.9670 -104.9340 82° East 469 540 37,000  Level FlightAware ADS-B
Fri 05:46:41 PM 41.9766 -104.8460 82° East 467 537 37,000  Level FlightAware ADS-B
Fri 05:47:12 PM 41.9861 -104.7570 82° East 466 536 37,000  Level FlightAware ADS-B
Fri 05:47:43 PM 41.9954 -104.6700 82° East 466 536 37,000  Level FlightAware ADS-B
Fri 05:48:13 PM 42.0046 -104.5830 82° East 465 535 37,000  Level FlightAware ADS-B
Fri 05:48:44 PM 42.0138 -104.4950 82° East 466 536 37,000  Level FlightAware ADS-B
Fri 05:49:15 PM 42.0229 -104.4080 82° East 466 536 37,000  Level FlightAware ADS-B
Fri 05:49:45 PM 42.0320 -104.3210 82° East 466 536 37,000  Level FlightAware ADS-B
Fri 05:50:16 PM 42.0412 -104.2310 82° East 466 536 37,000  Level FlightAware ADS-B
Fri 05:50:53 PM 42.0519 -104.1260 82° East 466 536 37,000  Level FlightAware ADS-B
Fri 05:51:24 PM 42.0608 -104.0370 82° East 467 537 37,000  Level FlightAware ADS-B
Fri 05:51:54 PM 42.0695 -103.9500 82° East 467 537 37,000  Level FlightAware ADS-B
Fri 05:52:25 PM 42.0781 -103.8630 82° East 468 539 37,000  Level FlightAware ADS-B
Fri 05:52:55 PM 42.0868 -103.7750 82° East 467 537 37,000  Level FlightAware ADS-B
Fri 05:53:26 PM 42.0954 -103.6880 82° East 466 536 37,000  Level FlightAware ADS-B
Fri 05:54:02 PM 42.1056 -103.5820 83° East 465 535 37,000  Level FlightAware ADS-B
Fri 05:54:34 PM 42.1143 -103.4910 83° East 464 534 37,000  Level FlightAware ADS-B
Fri 05:55:08 PM 42.1235 -103.3950 83° East 463 533 37,000  Level FlightAware ADS-B
Fri 05:55:38 PM 42.1315 -103.3100 83° East 464 534 37,000  Level FlightAware ADS-B
Fri 05:56:16 PM 42.1416 -103.2020 83° East 463 533 37,000  Level FlightAware ADS-B
Fri 05:56:47 PM 42.1499 -103.1130 83° East 463 533 37,000  Level FlightAware ADS-B
Fri 05:57:17 PM 42.1578 -103.0270 83° East 461 531 37,000  Level FlightAware ADS-B
Fri 05:57:48 PM 42.1657 -102.9390 83° East 460 529 37,000  Level FlightAware ADS-B
Fri 05:58:24 PM 42.1749 -102.8380 83° East 460 529 37,000  Level FlightAware ADS-B
Fri 05:58:57 PM 42.1832 -102.7440 83° East 460 529 37,000  Level FlightAware ADS-B
Fri 05:59:31 PM 42.1918 -102.6470 83° East 460 529 37,000  Level FlightAware ADS-B
Fri 06:00:01 PM 42.1993 -102.5620 83° East 459 528 37,000  Level FlightAware ADS-B
Fri 06:00:44 PM 42.2099 -102.4400 83° East 458 527 37,000  Level FlightAware ADS-B
Fri 06:01:32 PM 42.2214 -102.3060 83° East 458 527 37,000  Level FlightAware ADS-B
Fri 06:02:25 PM 42.2341 -102.1550 83° East 458 527 37,000  Level FlightAware ADS-B
Fri 06:03:16 PM 42.2456 -102.0222 83° East 457 526 37,000  Level Denver Center
Fri 06:04:18 PM 42.2594 -101.8583 83° East 458 527 37,000  Level Denver Center
Fri 06:05:21 PM 42.2739 -101.6681 84° East 456 525 37,000  Level Denver Center
Fri 06:06:23 PM 42.2872 -101.5042 84° East 458 527 37,000  Level Denver Center
Fri 06:07:25 PM 42.3025 -101.3153 84° East 454 522 37,000  Level Denver Center
Fri 06:08:27 PM 42.3139 -101.1508 85° East 458 527 37,000  Level Denver Center
Fri 06:09:29 PM 42.3283 -100.9617 84° East 454 522 37,000  Level Denver Center
Fri 06:10:31 PM 42.3392 -100.7958 85° East 463 533 37,000  Level Denver Center
Fri 06:11:33 PM 42.3508 -100.6339 84° East 457 526 37,000  Level Denver Center
Fri 06:12:35 PM 42.3644 -100.4433 84° East 455 524 37,000  Level Denver Center
Fri 06:13:37 PM 42.3750 -100.2792 85° East 457 526 37,000  Level Denver Center
Fri 06:14:39 PM 42.3878 -100.0908 85° East 451 519 37,000  Level Denver Center
Fri 06:15:41 PM 42.3986 -99.9281 85° East 452 520 37,000  Level Denver Center
Fri 06:16:43 PM 42.4103 -99.7403 85° East 450 518 37,000  Level Denver Center
Fri 06:17:45 PM 42.4208 -99.5644 85° East 450 518 37,000  Level Denver Center
Fri 06:18:47 PM 42.4319 -99.3956 85° East 450 518 37,000  Level Denver Center
Fri 06:19:26 PM 42.4353 -99.3275 86° East 451 519 37,000  Level Minneapolis Center
Fri 06:20:29 PM 42.4472 -99.1231 85° East 453 521 37,000  Level Minneapolis Center
Fri 06:21:30 PM 42.4547 -98.9878 86° East 451 519 37,000  Level Minneapolis Center
Fri 06:22:33 PM 42.4661 -98.7836 86° East 452 520 37,000  Level Minneapolis Center
Fri 06:23:35 PM 42.4767 -98.5783 86° East 453 521 37,000  Level Minneapolis Center
Fri 06:24:37 PM 42.4850 -98.4069 86° East 454 522 37,000  Level Minneapolis Center
Fri 06:29:55 PM 42.5250 -97.4960 86° East 451 519 37,000  Level FlightAware ADS-B
Fri 06:30:25 PM 42.5290 -97.4130 86° East 450 518 37,000  Level FlightAware ADS-B
Fri 06:31:00 PM 42.5330 -97.3150 87° East 449 517 37,000  Level FlightAware ADS-B
Fri 06:31:40 PM 42.5370 -97.1980 87° East 449 517 37,000  Level FlightAware ADS-B
Fri 06:32:12 PM 42.5400 -97.1110 87° East 448 516 37,000  Level FlightAware ADS-B
Fri 06:32:48 PM 42.5440 -97.0070 87° East 448 516 37,000  Level FlightAware ADS-B
Fri 06:33:20 PM 42.5470 -96.9200 87° East 447 514 37,000  Level FlightAware ADS-B
Fri 06:33:56 PM 42.5510 -96.8180 87° East 446 513 37,000  Level FlightAware ADS-B
Fri 06:34:32 PM 42.5540 -96.7170 88° East 445 512 37,000  Level FlightAware ADS-B
Fri 06:35:08 PM 42.5580 -96.6190 87° East 444 511 37,000  Level FlightAware ADS-B
Fri 06:35:46 PM 42.5610 -96.5110 88° East 443 510 37,000  Level FlightAware ADS-B
Fri 06:36:18 PM 42.5640 -96.4220 87° East 442 509 37,000  Level FlightAware ADS-B
Fri 06:36:48 PM 42.5670 -96.3410 87° East 441 507 37,000  Level FlightAware ADS-B
Fri 06:37:30 PM 42.5700 -96.2260 88° East 441 507 37,000  Level FlightAware ADS-B
Fri 06:38:06 PM 42.5730 -96.1260 88° East 441 507 37,000  Level FlightAware ADS-B
Fri 06:38:38 PM 42.5750 -96.0420 88° East 441 507 37,000  Level FlightAware ADS-B
Fri 06:39:14 PM 42.5780 -95.9390 88° East 441 507 37,000  Level FlightAware ADS-B
Fri 06:39:50 PM 42.5810 -95.8420 88° East 442 509 37,000  Level FlightAware ADS-B
Fri 06:40:18 PM 42.5830 -95.7600 88° East 442 509 37,000  Level FlightAware ADS-B
Fri 06:41:00 PM 42.5860 -95.6450 88° East 443 510 37,000  Level FlightAware ADS-B
Fri 06:41:36 PM 42.5880 -95.5480 88° East 443 510 37,000  Level FlightAware ADS-B
Fri 06:42:08 PM 42.5900 -95.4610 88° East 444 511 37,000  Level FlightAware ADS-B
Fri 06:42:44 PM 42.5930 -95.3580 88° East 445 512 37,000  Level FlightAware ADS-B
Fri 06:43:20 PM 42.5950 -95.2560 88° East 446 513 37,000  Level FlightAware ADS-B
Fri 06:43:52 PM 42.5970 -95.1680 88° East 447 514 37,000  Level FlightAware ADS-B
Fri 06:44:28 PM 42.5990 -95.0700 88° East 447 514 37,000  Level FlightAware ADS-B
Fri 06:45:04 PM 42.6010 -94.9650 88° East 448 516 37,000  Level FlightAware ADS-B
Fri 06:45:40 PM 42.6020 -94.8630 89° East 449 517 37,000  Level FlightAware ADS-B
Fri 06:46:12 PM 42.6040 -94.7750 88° East 449 517 37,000  Level FlightAware ADS-B
Fri 06:46:48 PM 42.6060 -94.6760 88° East 450 518 37,000  Level FlightAware ADS-B
Fri 06:47:32 PM 42.6080 -94.5490 89° East 452 520 37,000  Level FlightAware ADS-B
Fri 06:48:04 PM 42.6090 -94.4590 89° East 452 520 37,000  Level FlightAware ADS-B
Fri 06:48:40 PM 42.6100 -94.3590 89° East 453 521 37,000  Level FlightAware ADS-B
Fri 06:49:18 PM 42.6120 -94.2510 89° East 453 521 37,000  Level FlightAware ADS-B
Fri 06:49:50 PM 42.6120 -94.1630 90° East 453 521 37,000  Level FlightAware ADS-B
Fri 06:50:26 PM 42.6130 -94.0590 89° East 453 521 37,000  Level FlightAware ADS-B
Fri 06:51:01 PM 42.6140 -93.9560 89° East 452 520 37,000  Level FlightAware ADS-B
Fri 06:51:37 PM 42.6150 -93.8570 89° East 452 520 37,000  Level FlightAware ADS-B
Fri 06:52:11 PM 42.6150 -93.7610 90° East 452 520 37,000  Level FlightAware ADS-B
Fri 06:52:45 PM 42.6160 -93.6630 89° East 451 519 37,000  Level FlightAware ADS-B
Fri 06:53:23 PM 42.6160 -93.5540 90° East 451 519 37,000  Level FlightAware ADS-B
Fri 06:53:55 PM 42.6160 -93.4670 90° East 449 517 37,000  Level FlightAware ADS-B
Fri 06:54:31 PM 42.6170 -93.3680 89° East 448 516 37,000  Level FlightAware ADS-B
Fri 06:55:02 PM 42.6170 -93.2810 90° East 446 513 37,000  Level FlightAware ADS-B
Fri 06:55:40 PM 42.6170 -93.1760 90° East 445 512 37,000  Level FlightAware ADS-B
Fri 06:56:17 PM 42.6170 -93.0690 90° East 443 510 37,000  Level FlightAware ADS-B
Fri 06:56:48 PM 42.6170 -92.9850 90° East 441 507 37,000  Level FlightAware ADS-B
Fri 06:57:26 PM 42.6160 -92.8820 91° East 440 506 37,000  Level FlightAware ADS-B
Fri 06:57:59 PM 42.6160 -92.7930 90° East 439 505 37,000  Level FlightAware ADS-B
Fri 06:58:38 PM 42.6160 -92.6850 90° East 440 506 37,000  Level FlightAware ADS-B
Fri 06:59:10 PM 42.6150 -92.5960 91° East 440 506 37,000  Level FlightAware ADS-B
Fri 06:59:47 PM 42.6150 -92.4920 90° East 442 509 37,000  Level FlightAware ADS-B
Fri 07:00:19 PM 42.6140 -92.4060 91° East 443 510 37,000  Level FlightAware ADS-B
Fri 07:00:54 PM 42.6130 -92.3070 91° East 444 511 37,000  Level FlightAware ADS-B
Fri 07:01:30 PM 42.6130 -92.2060 90° East 445 512 37,000  Level FlightAware ADS-B
Fri 07:02:03 PM 42.6120 -92.1140 91° East 447 514 37,000  Level FlightAware ADS-B
Fri 07:02:39 PM 42.6110 -92.0170 91° East 447 514 37,000  Level FlightAware ADS-B
Fri 07:03:16 PM 42.6100 -91.9080 91° East 448 516 37,000  Level FlightAware ADS-B
Fri 07:03:51 PM 42.6090 -91.8100 91° East 449 517 37,000  Level FlightAware ADS-B
Fri 07:04:27 PM 42.6070 -91.7090 92° East 451 519 37,000  Level FlightAware ADS-B
Fri 07:05:00 PM 42.6060 -91.6150 91° East 452 520 37,000  Level FlightAware ADS-B
Fri 07:05:35 PM 42.6050 -91.5160 91° East 452 520 37,000  Level FlightAware ADS-B
Fri 07:06:11 PM 42.6030 -91.4140 91° East 452 520 37,000  Level FlightAware ADS-B
Fri 07:06:48 PM 42.6020 -91.3100 91° East 453 521 37,000  Level FlightAware ADS-B
Fri 07:07:19 PM 42.6000 -91.2210 92° East 454 522 37,000  Level FlightAware ADS-B
Fri 07:07:56 PM 42.5980 -91.1180 91° East 454 522 37,000  Level FlightAware ADS-B
Fri 07:08:31 PM 42.5970 -91.0180 91° East 455 524 37,000  Level FlightAware ADS-B
Fri 07:09:03 PM 42.5950 -90.9290 92° East 455 524 37,000  Level FlightAware ADS-B
Fri 07:09:39 PM 42.5930 -90.8250 91° East 455 524 37,000  Level FlightAware ADS-B
Fri 07:10:17 PM 42.5910 -90.7190 91° East 456 525 37,000  Level FlightAware ADS-B
Fri 07:10:53 PM 42.5880 -90.6180 92° East 456 525 37,000  Level FlightAware ADS-B
Fri 07:11:24 PM 42.5870 -90.5460 91° East 456 525 37,000  Level FlightAware ADS-B
Fri 07:12:00 PM 42.5840 -90.4230 92° East 455 524 37,000  Level FlightAware ADS-B
Fri 07:12:37 PM 42.5810 -90.3170 92° East 456 525 37,000  Level FlightAware ADS-B
Fri 07:13:09 PM 42.5790 -90.2260 92° East 457 526 37,000  Level FlightAware ADS-B
Fri 07:13:45 PM 42.5760 -90.1210 92° East 457 526 37,000  Level FlightAware ADS-B
Fri 07:14:21 PM 42.5730 -90.0210 92° East 457 526 37,000  Level FlightAware ADS-B
Fri 07:14:56 PM 42.5710 -89.9180 91° East 457 526 37,000  Level FlightAware ADS-B
Fri 07:15:30 PM 42.5680 -89.8210 92° East 458 527 37,000  Level FlightAware ADS-B
Fri 07:16:06 PM 42.5650 -89.7170 92° East 460 529 37,000  Level FlightAware ADS-B
Fri 07:16:43 PM 42.5620 -89.6130 92° East 460 529 37,000  Level FlightAware ADS-B
Fri 07:17:15 PM 42.5590 -89.5210 93° East 460 529 37,000  Level FlightAware ADS-B
Fri 07:17:51 PM 42.5550 -89.4180 93° East 460 529 37,000  Level FlightAware ADS-B
Fri 07:18:26 PM 42.5520 -89.3150 92° East 460 529 37,000  Level FlightAware ADS-B
Fri 07:19:03 PM 42.5480 -89.2100 93° East 460 529 37,000  Level FlightAware ADS-B
Fri 07:19:35 PM 42.5450 -89.1170 92° East 460 529 37,000  Level FlightAware ADS-B
Fri 07:20:11 PM 42.5410 -89.0140 93° East 461 531 37,000  Level FlightAware ADS-B
Fri 07:20:48 PM 42.5370 -88.9060 93° East 463 533 37,000  Level FlightAware ADS-B
Fri 07:21:24 PM 42.5330 -88.8010 93° East 464 534 37,000  Level FlightAware ADS-B
Fri 07:21:56 PM 42.5300 -88.7110 93° East 465 535 37,000  Level FlightAware ADS-B
Fri 07:22:28 PM 42.5260 -88.6180 93° East 466 536 37,000  Level FlightAware ADS-B
Fri 07:23:09 PM 42.5210 -88.4970 93° East 468 539 37,000 405 Level FlightAware ADS-B
Fri 07:23:42 PM 42.5170 -88.3980 93° East 470 541 37,500 957 Climbing FlightAware ADS-B
Fri 07:24:18 PM 42.5130 -88.2920 93° East 471 542 38,100 1,130 Climbing FlightAware ADS-B
Fri 07:24:51 PM 42.5090 -88.1970 93° East 468 539 38,800 794 Climbing FlightAware ADS-B
Fri 07:25:26 PM 42.5040 -88.0940 94° East 467 537 39,000 167 Climbing FlightAware ADS-B
Fri 07:26:03 PM 42.5010 -87.9880 92° East 467 537 39,000  Level FlightAware ADS-B
Fri 07:26:39 PM 42.5000 -87.8830 91° East 470 541 39,000  Level FlightAware ADS-B
Fri 07:27:10 PM 42.5000 -87.7890 90° East 473 544 39,000  Level FlightAware ADS-B
Fri 07:27:48 PM 42.5000 -87.6810 90° East 476 548 39,000  Level FlightAware ADS-B
Fri 07:28:23 PM 42.4990 -87.5780 91° East 477 549 39,000  Level FlightAware ADS-B
Fri 07:28:55 PM 42.4990 -87.4830 90° East 479 551 39,000  Level FlightAware ADS-B
Fri 07:29:27 PM 42.4990 -87.3850 90° East 479 551 39,000  Level FlightAware ADS-B
Fri 07:30:08 PM 42.4980 -87.2590 91° East 480 552 39,000  Level FlightAware ADS-B
Fri 07:30:43 PM 42.4970 -87.1620 91° East 479 551 39,000  Level FlightAware ADS-B
Fri 07:31:23 PM 42.4960 -87.0410 91° East 479 551 39,000  Level FlightAware ADS-B
Fri 07:31:55 PM 42.4950 -86.9440 91° East 478 550 39,000  Level FlightAware ADS-B
Fri 07:32:35 PM 42.4940 -86.8230 91° East 477 549 39,000  Level FlightAware ADS-B
Fri 07:33:05 PM 42.4930 -86.7350 91° East 476 548 39,000  Level FlightAware ADS-B
Fri 07:33:43 PM 42.4920 -86.6220 91° East 475 547 39,000  Level FlightAware ADS-B
Fri 07:34:21 PM 42.4910 -86.5070 91° East 473 544 39,000  Level FlightAware ADS-B
Fri 07:34:53 PM 42.4890 -86.4130 92° East 472 543 39,000  Level FlightAware ADS-B
Fri 07:35:29 PM 42.4880 -86.3060 91° East 471 542 39,000  Level FlightAware ADS-B
Fri 07:36:03 PM 42.4870 -86.2100 91° East 470 541 39,000  Level FlightAware ADS-B
Fri 07:36:39 PM 42.4850 -86.1000 91° East 470 541 39,000  Level FlightAware ADS-B
Fri 07:37:15 PM 42.4830 -85.9940 91° East 469 540 39,000  Level FlightAware ADS-B
Fri 07:37:49 PM 42.4810 -85.8940 92° East 469 540 39,000  Level FlightAware ADS-B
Fri 07:38:25 PM 42.4790 -85.7880 91° East 468 539 39,000  Level FlightAware ADS-B
Fri 07:38:57 PM 42.4780 -85.6960 91° East 469 540 39,000  Level FlightAware ADS-B
Fri 07:39:34 PM 42.4750 -85.5880 92° East 469 540 39,000  Level FlightAware ADS-B
Fri 07:40:09 PM 42.4730 -85.4880 92° East 470 541 39,000  Level FlightAware ADS-B
Fri 07:40:41 PM 42.4710 -85.3890 92° East 471 542 39,000  Level FlightAware ADS-B
Fri 07:41:19 PM 42.4690 -85.2810 91° East 473 544 39,000  Level FlightAware ADS-B
Fri 07:41:55 PM 42.4660 -85.1720 92° East 474 545 39,000  Level FlightAware ADS-B
Fri 07:42:27 PM 42.4640 -85.0790 92° East 474 545 39,000  Level FlightAware ADS-B
Fri 07:43:01 PM 42.4610 -84.9770 92° East 475 547 39,000  Level FlightAware ADS-B
Fri 07:43:33 PM 42.4590 -84.8830 92° East 475 547 39,000  Level FlightAware ADS-B
Fri 07:44:15 PM 42.4550 -84.7590 92° East 477 549 39,000  Level FlightAware ADS-B
Fri 07:44:51 PM 42.4520 -84.6500 92° East 478 550 39,000  Level FlightAware ADS-B
Fri 07:45:23 PM 42.4490 -84.5580 92° East 478 550 39,000  Level FlightAware ADS-B
Fri 07:45:59 PM 42.4460 -84.4480 92° East 478 550 39,000  Level FlightAware ADS-B
Fri 07:46:35 PM 42.4430 -84.3400 92° East 480 552 39,000  Level FlightAware ADS-B
Fri 07:47:05 PM 42.4400 -84.2490 93° East 481 554 39,000  Level FlightAware ADS-B
Fri 07:47:44 PM 42.4360 -84.1350 93° East 482 555 39,000  Level FlightAware ADS-B
Fri 07:48:20 PM 42.4320 -84.0250 93° East 484 557 39,000  Level FlightAware ADS-B
Fri 07:48:51 PM 42.4290 -83.9290 92° East 486 559 39,000  Level FlightAware ADS-B
Fri 07:49:28 PM 42.4250 -83.8200 93° East 488 562 39,000  Level FlightAware ADS-B
Fri 07:50:03 PM 42.4210 -83.7100 93° East 490 564 39,000  Level FlightAware ADS-B
Fri 07:50:39 PM 42.4170 -83.6020 93° East 492 566 39,000  Level FlightAware ADS-B
Fri 07:51:13 PM 42.4130 -83.4960 93° East 494 568 39,000  Level FlightAware ADS-B
Fri 07:51:50 PM 42.4080 -83.3820 93° East 495 570 39,000  Level FlightAware ADS-B
Fri 07:52:25 PM 42.4040 -83.2740 93° East 495 570 39,000  Level FlightAware ADS-B
Fri 07:52:58 PM 42.4000 -83.1760 93° East 496 571 39,000  Level FlightAware ADS-B
Fri 07:53:35 PM 42.3950 -83.0580 93° East 497 572 39,000  Level FlightAware ADS-B
Fri 07:54:07 PM 42.3900 -82.9570 94° East 497 572 39,000  Level FlightAware ADS-B
Fri 07:54:43 PM 42.3860 -82.8510 93° East 497 572 39,000  Level FlightAware ADS-B
Fri 07:55:19 PM 42.3810 -82.7390 93° East 497 572 39,000  Level FlightAware ADS-B
Fri 07:55:53 PM 42.3760 -82.6340 94° East 497 572 39,000  Level FlightAware ADS-B
Fri 07:56:31 PM 42.3720 -82.5130 93° East 496 571 39,000  Level FlightAware ADS-B
Fri 07:57:03 PM 42.3680 -82.4150 93° East 496 571 39,000  Level FlightAware ADS-B
Fri 07:57:39 PM 42.3630 -82.3010 93° East 496 571 39,000  Level FlightAware ADS-B
Fri 07:58:13 PM 42.3590 -82.1950 93° East 497 572 39,000  Level FlightAware ADS-B
Fri 07:58:50 PM 42.3540 -82.0860 94° East 497 572 39,000  Level FlightAware ADS-B
Fri 07:59:25 PM 42.3500 -81.9880 93° East 498 573 39,000  Level FlightAware ADS-B
Fri 08:00:01 PM 42.3450 -81.8740 93° East 499 574 39,000  Level FlightAware ADS-B
Fri 08:00:42 PM 42.3390 -81.7350 93° East 500 575 39,000  Level FlightAware ADS-B
Fri 08:01:17 PM 42.3340 -81.6270 94° East 502 578 39,000  Level FlightAware ADS-B
Fri 08:01:53 PM 42.3280 -81.5140 94° East 503 579 39,000  Level FlightAware ADS-B
Fri 08:02:25 PM 42.3230 -81.4150 94° East 503 579 39,000  Level FlightAware ADS-B
Fri 08:03:00 PM 42.3180 -81.3040 93° East 504 580 39,000  Level FlightAware ADS-B
Fri 08:03:38 PM 42.3120 -81.1830 94° East 504 580 39,000  Level FlightAware ADS-B
Fri 08:04:10 PM 42.3070 -81.0830 94° East 505 581 39,000  Level FlightAware ADS-B
Fri 08:04:47 PM 42.3000 -80.9690 95° East 505 581 39,000  Level FlightAware ADS-B
Fri 08:05:20 PM 42.2890 -80.8640 98° East 505 581 39,000  Level FlightAware ADS-B
Fri 08:05:58 PM 42.2760 -80.7450 98° East 505 581 39,000  Level FlightAware ADS-B
Fri 08:06:38 PM 42.2600 -80.6260 100° East 505 581 39,000  Level FlightAware ADS-B
Fri 08:07:13 PM 42.2460 -80.5160 100° East 506 582 39,000  Level FlightAware ADS-B
Fri 08:07:48 PM 42.2310 -80.4060 100° East 507 583 39,000  Level FlightAware ADS-B
Fri 08:08:30 PM 42.2140 -80.2810 100° East 507 583 39,000  Level FlightAware ADS-B
Fri 08:09:05 PM 42.2010 -80.1790 100° East 506 582 39,000  Level FlightAware ADS-B
Fri 08:09:40 PM 42.1870 -80.0740 100° East 506 582 39,000  Level FlightAware ADS-B
Fri 08:10:13 PM 42.1750 -79.9830 100° East 507 583 39,000  Level FlightAware ADS-B
Fri 08:10:49 PM 42.1570 -79.8480 100° East 506 582 39,000  Level FlightAware ADS-B
Fri 08:11:31 PM 42.1400 -79.7240 100° East 504 580 39,000  Level FlightAware ADS-B
Fri 08:12:09 PM 42.1220 -79.5980 101° East 503 579 39,000  Level FlightAware ADS-B
Fri 08:12:45 PM 42.1070 -79.4920 101° East 502 578 39,000  Level FlightAware ADS-B
Fri 08:13:17 PM 42.0930 -79.3870 100° East 501 577 39,000  Level FlightAware ADS-B
Fri 08:13:53 PM 42.0780 -79.2800 101° East 501 577 39,000  Level FlightAware ADS-B
Fri 08:14:29 PM 42.0620 -79.1690 101° East 501 577 39,000  Level FlightAware ADS-B
Fri 08:15:05 PM 42.0460 -79.0590 101° East 501 577 39,000  Level FlightAware ADS-B
Fri 08:15:37 PM 42.0320 -78.9600 101° East 501 577 39,000  Level FlightAware ADS-B
Fri 08:16:13 PM 42.0160 -78.8510 101° East 501 577 39,000  Level FlightAware ADS-B
Fri 08:16:51 PM 41.9990 -78.7360 101° East 501 577 39,000  Level FlightAware ADS-B
Fri 08:17:23 PM 41.9840 -78.6370 101° East 501 577 39,000  Level FlightAware ADS-B
Fri 08:18:01 PM 41.9670 -78.5210 101° East 502 578 39,000  Level FlightAware ADS-B
Fri 08:18:37 PM 41.9500 -78.4100 102° East 502 578 39,000  Level FlightAware ADS-B
Fri 08:19:13 PM 41.9340 -78.3050 102° East 504 580 39,000  Level FlightAware ADS-B
Fri 08:19:53 PM 41.9160 -78.1820 101° East 505 581 39,000  Level FlightAware ADS-B
Fri 08:20:28 PM 41.8990 -78.0740 102° East 506 582 39,000  Level FlightAware ADS-B
Fri 08:21:04 PM 41.8820 -77.9620 101° East 506 582 39,000  Level FlightAware ADS-B
Fri 08:21:38 PM 41.8640 -77.8570 103° East 505 581 39,000  Level FlightAware ADS-B
Fri 08:22:14 PM 41.8390 -77.7520 108° East 504 580 39,000  Level FlightAware ADS-B
Fri 08:22:46 PM 41.8140 -77.6580 110° East 503 579 39,000  Level FlightAware ADS-B
Fri 08:23:24 PM 41.7850 -77.5470 109° East 504 580 39,000  Level FlightAware ADS-B
Fri 08:24:00 PM 41.7570 -77.4430 110° East 504 580 39,000  Level FlightAware ADS-B
Fri 08:24:32 PM 41.7310 -77.3470 110° East 505 581 39,000  Level FlightAware ADS-B
Fri 08:25:08 PM 41.7030 -77.2400 109° East 505 581 39,000  Level FlightAware ADS-B
Fri 08:25:44 PM 41.6740 -77.1340 110° East 505 581 39,000  Level FlightAware ADS-B
Fri 08:26:16 PM 41.6500 -77.0440 110° East 506 582 39,000  Level FlightAware ADS-B
Fri 08:26:52 PM 41.6210 -76.9380 110° East 506 582 39,000  Level FlightAware ADS-B
Fri 08:27:16 PM 41.6010 -76.8648 110° East 506 582 39,000  Level FlightAware ADS-B
Fri 08:27:53 PM 41.5715 -76.7567 110° East 506 582 39,000  Level FlightAware ADS-B
Fri 08:28:23 PM 41.5472 -76.6681 110° East 506 582 39,000  Level FlightAware ADS-B
Fri 08:28:54 PM 41.5222 -76.5775 110° East 505 581 39,000 -281 Level FlightAware ADS-B
Fri 08:29:27 PM 41.4959 -76.4821 110° East 501 577 38,700 -818 Descending FlightAware ADS-B
Fri 08:30:00 PM 41.4690 -76.3851 110° East 500 575 38,100 -1,406 Descending FlightAware ADS-B
Fri 08:30:31 PM 41.4446 -76.2979 110° East 502 578 37,200 -2,066 Descending FlightAware ADS-B
Fri 08:31:01 PM 41.4202 -76.2108 110° East 505 581 36,000 -2,700 Descending FlightAware ADS-B
Fri 08:31:31 PM 41.3954 -76.1222 110° East 506 582 34,500 -2,852 Descending FlightAware ADS-B
Fri 08:32:02 PM 41.3700 -76.0317 110° East 506 582 33,100 -2,951 Descending FlightAware ADS-B
Fri 08:32:32 PM 41.3454 -75.9443 111° Southeast 507 583 31,500 -3,200 Descending FlightAware ADS-B
Fri 08:33:02 PM 41.3206 -75.8567 111° Southeast 508 585 29,900 -3,200 Descending FlightAware ADS-B
Fri 08:33:32 PM 41.2957 -75.7693 111° Southeast 508 585 28,300 -2,852 Descending FlightAware ADS-B
Fri 08:34:03 PM 41.2700 -75.6828 112° Southeast 498 573 27,000 -2,557 Descending FlightAware ADS-B
Fri 08:34:33 PM 41.2428 -75.5985 113° Southeast 487 560 25,700 -2,571 Descending FlightAware ADS-B
Fri 08:35:06 PM 41.2134 -75.5105 114° Southeast 476 548 24,300 -2,381 Descending FlightAware ADS-B
Fri 08:35:36 PM 41.1863 -75.4299 114° Southeast 472 543 23,200 -1,279 Descending FlightAware ADS-B
Fri 08:36:07 PM 41.1592 -75.3494 114° Southeast 466 536 23,000 -194 Descending FlightAware ADS-B
Fri 08:36:38 PM 41.1319 -75.2687 114° Southeast 461 531 23,000  Level FlightAware ADS-B
Fri 08:37:08 PM 41.1058 -75.1914 114° Southeast 461 531 23,000  Level FlightAware ADS-B
Fri 08:37:38 PM 41.0790 -75.1124 114° Southeast 466 536 23,000  Level FlightAware ADS-B
Fri 08:38:09 PM 41.0520 -75.0331 114° Southeast 467 537 23,000  Level FlightAware ADS-B
Fri 08:38:39 PM 41.0250 -74.9541 114° Southeast 468 539 23,000 -125 Level FlightAware ADS-B
Fri 08:38:57 PM 41.0097 -74.9074 113° Southeast 464 534 22,900 -667 Descending FlightAware ADS-B
Fri 08:39:06 PM 41.0032 -74.8834 110° East 462 532 22,700 -1,750 Descending FlightAware ADS-B
Fri 08:39:21 PM 40.9944 -74.8420 106° East 461 531 22,200 -1,957 Descending FlightAware ADS-B
Fri 08:39:52 PM 40.9833 -74.7589 100° East 454 522 21,200 -1,429 Descending FlightAware ADS-B
Fri 08:40:24 PM 40.9739 -74.6707 98° East 451 519 20,700 -724 Descending FlightAware ADS-B
Fri 08:40:50 PM 40.9665 -74.5994 98° East 445 512 20,500 -400 Descending FlightAware ADS-B
Fri 08:40:54 PM 40.9655 -74.5894 98° East 444 511 20,500 -529 Level FlightAware ADS-B
Fri 08:41:24 PM 40.9567 -74.5081 98° East 443 510 20,200 -800 Descending FlightAware ADS-B
Fri 08:41:54 PM 40.9481 -74.4293 98° East 429 494 19,700 -1,161 Descending FlightAware ADS-B
Fri 08:42:26 PM 40.9389 -74.3474 98° East 433 498 19,000 -977 Descending FlightAware ADS-B
Fri 08:42:37 PM 40.9352 -74.3181 99° East 434 499 19,000  Level FlightAware ADS-B
Fri 08:42:42 PM 40.9332 -74.3065 103° East 434 499 19,000  Level FlightAware ADS-B
Fri 08:42:47 PM 40.9299 -74.2918 107° East 434 499 19,000  Level FlightAware ADS-B
Fri 08:42:56 PM 40.9236 -74.2704 111° Southeast 433 498 19,000  Level FlightAware ADS-B
Fri 08:43:05 PM 40.9154 -74.2490 117° Southeast 433 498 19,000  Level FlightAware ADS-B
Fri 08:43:14 PM 40.9063 -74.2303 123° Southeast 432 497 19,000  Level FlightAware ADS-B
Fri 08:43:19 PM 40.9001 -74.2197 128° Southeast 432 497 19,000  Level FlightAware ADS-B
Fri 08:43:29 PM 40.8859 -74.1990 132° Southeast 431 496 19,000 -1,024 Level FlightAware ADS-B
Fri 08:44:00 PM 40.8394 -74.1508 142° Southeast 416 479 18,300 -1,627 Descending FlightAware ADS-B
Fri 08:44:28 PM 40.7955 -74.1096 145° Southeast 410 472 17,400 -2,063 Descending FlightAware ADS-B
Fri 08:44:32 PM 40.7886 -74.1039 148° Southeast 409 471 17,200 -2,400 Descending FlightAware ADS-B
Fri 08:44:38 PM 40.7792 -74.0972 152° Southeast 407 468 17,000 -2,571 Descending FlightAware ADS-B
Fri 08:44:39 PM 40.7770 -74.0958 154° Southeast 406 467 16,900 -2,308 Descending FlightAware ADS-B
Fri 08:44:51 PM 40.7569 -74.0853 158° South 402 463 16,500 -2,211 Descending FlightAware ADS-B
Fri 08:44:58 PM 40.7433 -74.0798 163° South 398 458 16,200 -2,053 Descending FlightAware ADS-B
Fri 08:45:29 PM 40.6890 -74.0602 165° South 392 451 15,200 -1,915 Descending FlightAware ADS-B
Fri 08:45:45 PM 40.6620 -74.0505 165° South 388 447 14,700 -2,063 Descending FlightAware ADS-B
Fri 08:46:01 PM 40.6339 -74.0402 164° South 384 442 14,100 -2,217 Descending FlightAware ADS-B
Fri 08:46:31 PM 40.5830 -74.0215 164° South 376 433 13,000 -1,254 Descending FlightAware ADS-B
Fri 08:47:08 PM 40.5202 -73.9985 164° South 378 435 12,700 -265 Descending FlightAware ADS-B
Fri 08:47:39 PM 40.4684 -73.9796 164° South 376 433 12,700 -968 Level FlightAware ADS-B
Fri 08:48:10 PM 40.4186 -73.9614 164° South 354 407 11,700 -2,100 Descending FlightAware ADS-B
Fri 08:48:19 PM 40.4048 -73.9559 163° South 347 399 11,300 -2,471 Descending FlightAware ADS-B
Fri 08:48:27 PM 40.3924 -73.9488 156° South 342 394 11,000 -1,667 Descending FlightAware ADS-B
Fri 08:48:37 PM 40.3796 -73.9388 149° Southeast 332 382 10,800 -1,500 Descending FlightAware ADS-B
Fri 08:49:07 PM 40.3433 -73.9059 145° Southeast 306 352 10,000 -1,696 Descending FlightAware ADS-B
Fri 08:49:23 PM 40.3251 -73.8892 145° Southeast 299 344 9,500 -2,129 Descending FlightAware ADS-B
Fri 08:49:38 PM 40.3079 -73.8734 145° Southeast 295 339 8,900 -2,400 Descending FlightAware ADS-B
Fri 08:49:53 PM 40.2911 -73.8580 145° Southeast 293 337 8,300 -2,250 Descending FlightAware ADS-B
Fri 08:50:02 PM 40.2819 -73.8480 140° Southeast 291 335 8,000 -2,000 Descending FlightAware ADS-B
Fri 08:50:05 PM 40.2790 -73.8437 131° Southeast 292 336 7,900 -2,250 Descending FlightAware ADS-B
Fri 08:50:10 PM 40.2756 -73.8377 127° Southeast 291 335 7,700 -2,400 Descending FlightAware ADS-B
Fri 08:50:15 PM 40.2721 -73.8293 119° Southeast 289 333 7,500 -2,182 Descending FlightAware ADS-B
Fri 08:50:21 PM 40.2693 -73.8193 110° East 288 331 7,300 -2,308 Descending FlightAware ADS-B
Fri 08:50:28 PM 40.2680 -73.8077 98° East 286 329 7,000 -2,143 Descending FlightAware ADS-B
Fri 08:50:35 PM 40.2683 -73.7954 88° East 283 326 6,800 -2,143 Descending FlightAware ADS-B
Fri 08:50:42 PM 40.2696 -73.7837 82° East 282 325 6,500 -2,053 Descending FlightAware ADS-B
Fri 08:51:13 PM 40.2767 -73.7337 79° East 276 318 5,500 -2,087 Descending FlightAware ADS-B
Fri 08:51:28 PM 40.2800 -73.7098 80° East 267 307 4,900 -1,957 Descending FlightAware ADS-B
Fri 08:51:59 PM 40.2990 -73.6730 56° Northeast 258 297 4,000 -1,737 Descending FlightAware ADS-B
Fri 08:52:06 PM 40.3083 -73.6656 31° Northeast 265 305 3,800 -480 Descending FlightAware ADS-B
Fri 08:52:24 PM 40.3278 -73.6524 27° Northeast 262 302 3,800 -122 Level FlightAware ADS-B
Fri 08:52:55 PM 40.3610 -73.6300 27° Northeast 261 300 3,700  Descending FlightAware ADS-B
Fri 08:53:07 PM 40.3749 -73.6207 27° Northeast 262 302 3,800  Climbing FlightAware ADS-B
Fri 08:53:55 PM 40.4250 -73.5870 27° Northeast 262 302 3,700 -88 Descending FlightAware ADS-B
Fri 08:54:15 PM 40.4480 -73.5710 28° Northeast 262 302 3,700  Level FlightAware ADS-B
Fri 08:54:39 PM 40.4740 -73.5530 28° Northeast 263 303 3,700  Level FlightAware ADS-B
Fri 08:54:59 PM 40.4940 -73.5390 28° Northeast 256 295 3,700  Level FlightAware ADS-B
Fri 08:55:19 PM 40.5150 -73.5250 27° Northeast 237 273 3,700 136 Level FlightAware ADS-B
Fri 08:55:43 PM 40.5370 -73.5100 27° Northeast 220 253 3,800  Climbing FlightAware ADS-B
Fri 08:56:03 PM 40.5560 -73.4970 27° Northeast 220 253 3,700 -150 Descending FlightAware ADS-B
Fri 08:56:23 PM 40.5740 -73.4850 27° Northeast 222 255 3,700  Level FlightAware ADS-B
Fri 08:56:41 PM 40.5900 -73.4740 28° Northeast 221 254 3,700  Level FlightAware ADS-B
Fri 08:57:05 PM 40.6120 -73.4590 27° Northeast 222 255 3,700  Level FlightAware ADS-B
Fri 08:57:21 PM 40.6270 -73.4510 22° Northeast 221 254 3,700  Level FlightAware ADS-B
Fri 08:57:26 PM 40.6320 -73.4500 North 219 252 3,700 214 Level FlightAware ADS-B
Fri 08:57:49 PM 40.6540 -73.4560 348° North 220 253 3,800  Climbing FlightAware ADS-B
Fri 08:58:09 PM 40.6740 -73.4620 347° North 220 253 3,700 -600 Descending FlightAware ADS-B
Fri 08:58:29 PM 40.6950 -73.4690 346° North 220 253 3,400 -750 Descending FlightAware ADS-B
Fri 08:58:49 PM 40.7150 -73.4750 347° North 219 252 3,200 -667 Descending FlightAware ADS-B
Fri 08:59:05 PM 40.7300 -73.4800 346° North 219 252 3,000 -667 Descending FlightAware ADS-B
Fri 08:59:25 PM 40.7480 -73.4850 348° North 220 253 2,800 -500 Descending FlightAware ADS-B
Fri 08:59:41 PM 40.7660 -73.4910 346° North 220 253 2,700 -214 Descending FlightAware ADS-B
Fri 08:59:53 PM 40.7760 -73.4970 336° Northwest 220 253 2,700 -316 Level FlightAware ADS-B
Fri 09:00:00 PM 40.7820 -73.5050 315° West 218 251 2,600 -750 Descending FlightAware ADS-B
Fri 09:00:09 PM 40.7860 -73.5140 300° West 219 252 2,500 -720 Descending FlightAware ADS-B
Fri 09:00:25 PM 40.7940 -73.5330 299° West 220 253 2,300 -882 Descending FlightAware ADS-B
Fri 09:00:43 PM 40.8000 -73.5560 289° West 218 251 2,000 -923 Descending FlightAware ADS-B
Fri 09:00:51 PM 40.8010 -73.5660 278° West 217 250 1,900 -529 Descending FlightAware ADS-B
Fri 09:01:17 PM 40.8000 -73.6020 268° West 218 251 1,700 -300 Descending FlightAware ADS-B
Fri 09:01:31 PM 40.7970 -73.6190 257° West 215 247 1,700 273 Level FlightAware ADS-B
Fri 09:01:39 PM 40.7940 -73.6280 246° West 214 246 1,800 286 Climbing FlightAware ADS-B
Fri 09:01:52 PM 40.7860 -73.6430 235° Southwest 211 243 1,800 -286 Level FlightAware ADS-B
Fri 09:02:00 PM 40.7800 -73.6480 212° Southwest 205 236 1,700 -222 Descending FlightAware ADS-B
Fri 09:02:19 PM 40.7660 -73.6600 213° Southwest 185 213 1,700  Level FlightAware ADS-B
Fri 09:02:43 PM 40.7490 -73.6750 214° Southwest 181 208 1,700  Level FlightAware ADS-B
Fri 09:03:03 PM 40.7340 -73.6860 209° Southwest 179 206 1,700 -188 Level FlightAware ADS-B
Fri 09:03:15 PM 40.7260 -73.6920 210° Southwest 169 194 1,600 -706 Descending FlightAware ADS-B
Fri 09:03:37 PM 40.7120 -73.7020 208° Southwest 154 177 1,300 -900 Descending FlightAware ADS-B
Fri 09:03:55 PM 40.7020 -73.7110 214° Southwest 138 159 1,000 -682 Descending FlightAware ADS-B
Fri 09:04:21 PM 40.6880 -73.7210 208° Southwest 126 145 800 -522 Descending FlightAware ADS-B
Fri 09:04:41 PM 40.6780 -73.7290 211° Southwest 126 145 600 -750 Descending FlightAware ADS-B
Fri 09:05:01 PM 40.6680 -73.7370 211° Southwest 127 146 300 -750 Descending FlightAware ADS-B
Fri 09:05:21 PM 40.6570 -73.7460 212° Southwest 130 150 100 -600 Descending FlightAware ADS-B
Fri 09:05:45 PM 40.6450 -73.7550 210° Southwest 127 146 -250 Descending FlightAware ADS-B
Fri 09:06:05 PM 40.6360 -73.7620 211° Southwest 84 97  Level FlightAware ADS-B

Login

Don't have an account? Register now (free) for customized features, flight alerts, and more!